Weather History for Oskaloosa, IA

Change the Weather History Date:

Monday, September 2, 2013

  Actual Average (KOTM) Record (KOTM)
Temperature  
Mean Temperature 66 °F 70 °F  
Max Temperature 77 °F 81 °F 102 °F (1897)
Min Temperature 55 °F 59 °F 40 °F (1946)
Degree Days  
Heating Degree Days 0 1  
Month to date heating degree days 2  
Since 1 July heating degree days 13  
Cooling Degree Days 1 6  
Month to date cooling degree days 12  
Year to date cooling degree days 846  
Growing Degree Days 16 (Base 50)    
Moisture  
Dew Point 54 °F    
Average Humidity 70    
Maximum Humidity 92    
Minimum Humidity 36    
Precipitation  
Precipitation 0.00 in 0.14 in 2.45 in (1918)
Month to date precipitation 0.28  
Year to date precipitation 26.98  
Sea Level Pressure  
Sea Level Pressure 30.01 in    
Wind  
Wind Speed 6 mph (North)    
Max Wind Speed 10 mph    
Max Gust Speed 16 mph    
Visibility 10 miles    
Events      
T = Trace of Precipitation, MM = Missing Value Source: NWS Daily Summary

Daily Weather History Graph

Daily Weather History Graph

Search for Another Location

Airport:

Trip Planner

Search our weather history database for the weather conditions in past years. The results will help you decide how hot, cold, wet, or windy it might be!

Date:

Astronomy

Sep. 02, 2013 Rise Set
Actual Time 6:37 AM CDT 7:40 PM CDT
Civil Twilight 6:09 AM CDT 8:08 PM CDT
Nautical Twilight 5:35 AM CDT 8:42 PM CDT
Astronomical Twilight 5:00 AM CDT 9:17 PM CDT
Moon 3:54 AM CDT (9/2) 5:55 PM CDT (9/2)
Length of Visible Light 13h 59m
Length of Day
13h 02m
Waning Crescent, 8% of the Moon is Illuminated
Sep 2
Waning Crescent
Sep 5
New
Sep 12
First Quarter
Sep 19
Full
Sep 26
Last Quarter

Hourly Weather History & Observations

Time (CDT) Temp. Dew Point Humidity Pressure Visibility Wind Dir Wind Speed Gust Speed Precip Events Conditions
12:15 AM 61.0 °F 56.5 °F 85% 29.94 in 10.0 mi NW 4.6 mph - N/A   Clear
12:35 AM 60.8 °F 56.3 °F 85% 29.95 in 10.0 mi NNW 5.8 mph - N/A   Clear
12:55 AM 60.1 °F 56.3 °F 87% 29.95 in 10.0 mi NW 5.8 mph - N/A   Clear
1:15 AM 59.9 °F 56.1 °F 87% 29.96 in 10.0 mi NW 5.8 mph - N/A   Clear
1:35 AM 59.2 °F 55.8 °F 88% 29.96 in 10.0 mi NNW 5.8 mph - N/A   Clear
1:55 AM 59.0 °F 55.8 °F 89% 29.96 in 10.0 mi NNW 5.8 mph - N/A   Clear
2:15 AM 59.2 °F 55.9 °F 89% 29.96 in 10.0 mi NNW 5.8 mph - N/A   Clear
2:35 AM 59.0 °F 55.8 °F 89% 29.96 in 10.0 mi NNW 5.8 mph - N/A   Clear
2:55 AM 58.6 °F 55.8 °F 90% 29.96 in 10.0 mi NNW 5.8 mph - N/A   Clear
3:15 AM 58.5 °F 55.6 °F 90% 29.96 in 10.0 mi NNW 5.8 mph - N/A   Clear
3:35 AM 58.6 °F 55.9 °F 91% 29.97 in 10.0 mi NNW 5.8 mph - N/A   Clear
3:55 AM 58.3 °F 55.6 °F 91% 29.97 in 10.0 mi NNW 5.8 mph - N/A   Clear
4:15 AM 57.7 °F 55.4 °F 92% 29.97 in 10.0 mi NNW 4.6 mph - N/A   Clear
4:35 AM 57.4 °F 54.9 °F 91% 29.97 in 10.0 mi NNW 3.5 mph - N/A   Clear
4:55 AM 57.0 °F 54.7 °F 92% 29.98 in 10.0 mi NW 3.5 mph - N/A   Clear
5:15 AM 57.2 °F 54.9 °F 92% 29.98 in 10.0 mi NNW 4.6 mph - N/A   Clear
5:35 AM 57.2 °F 54.7 °F 91% 29.99 in 10.0 mi NNW 5.8 mph - N/A   Clear
5:55 AM 56.8 °F 54.5 °F 92% 29.99 in 10.0 mi NNW 5.8 mph - N/A   Clear
6:15 AM 56.8 °F 54.5 °F 92% 30.00 in 10.0 mi NNW 6.9 mph - N/A   Clear
6:35 AM 56.8 °F 54.5 °F 92% 30.00 in 10.0 mi NNW 6.9 mph - N/A   Clear
6:55 AM 56.7 °F 54.5 °F 92% 30.01 in 10.0 mi NNW 5.8 mph - N/A   Clear
7:15 AM 57.2 °F 54.7 °F 91% 30.02 in 10.0 mi NNW 5.8 mph - N/A   Clear
7:35 AM 58.1 °F 55.4 °F 91% 30.02 in 10.0 mi NNW 5.8 mph - N/A   Clear
7:55 AM 58.8 °F 55.8 °F 90% 30.03 in 10.0 mi North 5.8 mph - N/A   Clear
8:15 AM 59.9 °F 56.3 °F 88% 30.03 in 10.0 mi North 5.8 mph - N/A   Clear
8:35 AM 60.8 °F 55.9 °F 84% 30.03 in 10.0 mi North 8.1 mph - N/A   Clear
8:55 AM 62.6 °F 56.8 °F 81% 30.04 in 10.0 mi NNE 8.1 mph - N/A   Clear
9:15 AM 64.2 °F 56.8 °F 77% 30.04 in 10.0 mi North 8.1 mph - N/A   Clear
9:35 AM 65.7 °F 57.0 °F 74% 30.05 in 10.0 mi North 6.9 mph - N/A   Clear
9:55 AM 67.1 °F 57.0 °F 70% 30.05 in 10.0 mi NNE 8.1 mph - N/A   Clear
10:15 AM 68.5 °F 56.5 °F 65% 30.05 in 10.0 mi North 5.8 mph - N/A   Clear
10:35 AM 69.3 °F 55.9 °F 62% 30.05 in 10.0 mi North 6.9 mph - N/A   Scattered Clouds
10:55 AM 70.0 °F 55.4 °F 60% 30.05 in 10.0 mi NNE 5.8 mph - N/A   Scattered Clouds
11:15 AM 70.0 °F 55.6 °F 60% 30.05 in 10.0 mi North 8.1 mph - N/A   Scattered Clouds
11:35 AM 70.9 °F 55.6 °F 58% 30.05 in 10.0 mi North 9.2 mph - N/A   Scattered Clouds
11:55 AM 71.2 °F 55.2 °F 57% 30.05 in 10.0 mi North 10.4 mph - N/A   Scattered Clouds
12:15 PM 72.3 °F 55.2 °F 55% 30.05 in 10.0 mi North 9.2 mph - N/A   Scattered Clouds
12:35 PM 73.2 °F 54.0 °F 51% 30.04 in 10.0 mi North 6.9 mph - N/A   Clear
12:55 PM 73.6 °F 54.1 °F 50% 30.04 in 10.0 mi North 8.1 mph - N/A   Clear
1:15 PM 74.3 °F 54.7 °F 50% 30.03 in 10.0 mi NW 6.9 mph - N/A   Clear
1:35 PM 75.4 °F 52.3 °F 44% 30.04 in 10.0 mi NNW 6.9 mph - N/A   Clear
1:55 PM 75.4 °F 53.4 °F 46% 30.03 in 10.0 mi NNW 6.9 mph - N/A   Clear
2:15 PM 76.3 °F 52.0 °F 43% 30.02 in 10.0 mi North 5.8 mph 16.1 mph N/A   Clear
2:35 PM 75.9 °F 52.5 °F 44% 30.02 in 10.0 mi NNW 9.2 mph - N/A   Clear
2:55 PM 77.2 °F 54.1 °F 45% 30.01 in 10.0 mi NW 8.1 mph - N/A   Clear
3:15 PM 76.8 °F 52.5 °F 43% 30.01 in 10.0 mi NW 4.6 mph - N/A   Clear
3:35 PM 77.4 °F 50.9 °F 39% 30.00 in 10.0 mi NNW 5.8 mph - N/A   Clear
3:55 PM 77.5 °F 51.3 °F 40% 30.00 in 10.0 mi NW 10.4 mph - N/A   Clear
4:15 PM 77.9 °F 50.7 °F 39% 30.00 in 10.0 mi NNW 8.1 mph - N/A   Clear
4:35 PM 77.5 °F 50.0 °F 38% 29.99 in 10.0 mi WNW 8.1 mph - N/A   Clear
4:55 PM 77.4 °F 49.6 °F 38% 29.99 in 10.0 mi NNW 9.2 mph - N/A   Clear
5:15 PM 76.8 °F 49.8 °F 39% 29.99 in 10.0 mi North 9.2 mph - N/A   Clear
5:35 PM 76.1 °F 47.5 °F 36% 29.99 in 10.0 mi North 8.1 mph - N/A   Clear
5:55 PM 75.4 °F 46.9 °F 36% 30.00 in 10.0 mi NNW 9.2 mph - N/A   Clear
6:15 PM 74.5 °F 48.4 °F 40% 30.00 in 10.0 mi North 8.1 mph - N/A   Clear
6:35 PM 73.4 °F 49.1 °F 42% 30.00 in 10.0 mi North 8.1 mph - N/A   Clear
6:55 PM 72.0 °F 49.5 °F 45% 30.00 in 10.0 mi North 5.8 mph - N/A   Clear
7:15 PM 69.4 °F 50.9 °F 52% 30.00 in 10.0 mi North 4.6 mph - N/A   Clear
7:35 PM 66.4 °F 52.0 °F 60% 30.00 in 10.0 mi North 5.8 mph - N/A   Clear
7:55 PM 64.2 °F 52.0 °F 64% 30.01 in 10.0 mi North 4.6 mph - N/A   Clear
8:15 PM 62.8 °F 52.0 °F 68% 30.01 in 10.0 mi North 4.6 mph - N/A   Clear
8:35 PM 62.2 °F 52.0 °F 69% 30.02 in 10.0 mi North 5.8 mph - N/A   Clear
8:55 PM 61.2 °F 52.2 °F 72% 30.02 in 10.0 mi NNE 5.8 mph - N/A   Clear
9:15 PM 60.1 °F 52.0 °F 75% 30.02 in 10.0 mi North 5.8 mph - N/A   Clear
9:35 PM 59.9 °F 51.8 °F 75% 30.03 in 10.0 mi NNE 5.8 mph - N/A   Clear
9:55 PM 58.5 °F 51.8 °F 79% 30.04 in 10.0 mi NNE 4.6 mph - N/A   Clear
10:15 PM 58.1 °F 51.4 °F 78% 30.04 in 10.0 mi NNE 4.6 mph - N/A   Clear
10:35 PM 57.2 °F 51.3 °F 81% 30.04 in 10.0 mi NNE 5.8 mph - N/A   Clear
10:55 PM 57.4 °F 51.3 °F 80% 30.04 in 10.0 mi NNE 5.8 mph - N/A   Clear
11:15 PM 57.0 °F 51.4 °F 82% 30.04 in 10.0 mi NE 5.8 mph - N/A   Clear
11:35 PM 55.9 °F 51.4 °F 85% 30.04 in 10.0 mi NE 4.6 mph - N/A   Clear
11:55 PM 55.4 °F 51.4 °F 87% 30.05 in 10.0 mi NE 4.6 mph - N/A   Clear